Riverside, Wyoming
Current Conditions -  °F | °C
As of 2:15 AM on Monday 24 Nov 2014 (Local Time) from KSAA Reporting Station
Scattered Clouds Scattered Clouds  
Wind Chill:   Ceiling: Unl
Heat Index: 21°   Visibility: 10mi
Dew Point: 16°   Wind: 17mph
Humidity: 80%   Direction: 250°WSW
Pressure: 29.92"   Gusts: 23mph
Location:  41.1336°N, 106.799°W
Report Text: KSAA 240915Z AUTO 25015G20KT 10SM SCT120 M06/M09 A2992 RMK AO2
Loading
Personal Weather Stations






























Interactive Weather Map New forecast layout! Learn more

10-Day Weather Forecast

Advertisements
Track Severe Weather on mobile